createdAt,value
2019-02-28T00:01:05.417Z,11.57
2019-02-28T00:03:32.556Z,9.67
2019-02-28T00:05:59.533Z,10.93
2019-02-28T00:08:26.630Z,11.80
2019-02-28T00:10:53.483Z,10.97
2019-02-28T00:13:21.742Z,10.07
2019-02-28T00:15:49.366Z,11.20
2019-02-28T00:18:16.713Z,11.60
2019-02-28T00:20:43.612Z,9.67
2019-02-28T00:23:10.395Z,13.10
2019-02-28T00:25:38.052Z,11.10
2019-02-28T00:28:05.657Z,10.90
2019-02-28T00:30:32.826Z,10.33
2019-02-28T00:32:59.968Z,11.17
2019-02-28T00:35:27.028Z,10.90
2019-02-28T00:37:56.638Z,10.73
2019-02-28T00:40:22.598Z,11.50
2019-02-28T00:42:50.829Z,10.43
2019-02-28T00:45:18.438Z,9.93
2019-02-28T00:47:47.566Z,11.77
2019-02-28T00:50:14.179Z,10.80
2019-02-28T00:52:41.088Z,10.40
2019-02-28T00:55:08.117Z,11.20
2019-02-28T00:57:35.081Z,10.93
2019-02-28T01:00:05.468Z,9.70
2019-02-28T01:02:31.956Z,9.63
2019-02-28T01:05:01.401Z,10.00
2019-02-28T01:07:27.941Z,9.40
2019-02-28T01:09:54.980Z,10.20
2019-02-28T01:12:21.811Z,9.50
2019-02-28T01:14:48.955Z,9.63
2019-02-28T01:17:15.840Z,9.20
2019-02-28T01:19:42.732Z,10.00
2019-02-28T01:22:09.744Z,9.27
2019-02-28T01:24:36.685Z,10.60
2019-02-28T01:27:03.493Z,8.70
2019-02-28T01:29:32.921Z,9.47
2019-02-28T01:32:00.220Z,9.93
2019-02-28T01:34:29.121Z,8.10
2019-02-28T01:36:56.025Z,9.23
2019-02-28T01:39:22.835Z,9.43
2019-02-28T01:41:49.623Z,9.53
2019-02-28T01:44:16.575Z,9.80
2019-02-28T01:46:43.636Z,8.50
2019-02-28T01:49:10.428Z,8.47
2019-02-28T01:51:37.454Z,8.07
2019-02-28T01:54:04.305Z,7.80
2019-02-28T01:56:31.213Z,8.73
2019-02-28T01:58:58.099Z,8.70
2019-02-28T02:01:25.353Z,8.63
2019-02-28T02:03:52.593Z,8.10
2019-02-28T02:06:22.607Z,9.40
2019-02-28T02:08:49.086Z,8.80
2019-02-28T02:11:15.867Z,8.70
2019-02-28T02:13:42.979Z,8.77
2019-02-28T02:16:12.128Z,8.83
2019-02-28T02:18:40.311Z,8.60
2019-02-28T02:21:07.608Z,9.67
2019-02-28T02:23:34.379Z,9.23
2019-02-28T02:26:01.584Z,8.80
2019-02-28T02:28:28.589Z,9.83
2019-02-28T02:30:55.857Z,9.40
2019-02-28T02:33:22.866Z,9.17
2019-02-28T02:35:50.031Z,9.20
2019-02-28T02:38:16.957Z,9.90
2019-02-28T02:40:43.821Z,10.40
2019-02-28T02:43:10.663Z,9.27
2019-02-28T02:45:41.512Z,9.23
2019-02-28T02:48:06.848Z,10.20
2019-02-28T02:50:35.821Z,9.40
2019-02-28T02:53:05.546Z,10.27
2019-02-28T02:55:31.726Z,9.87
2019-02-28T02:57:58.631Z,9.83
2019-02-28T03:00:25.609Z,11.67
2019-02-28T03:02:52.387Z,11.17
2019-02-28T03:05:19.252Z,11.30
2019-02-28T03:07:46.166Z,11.00
2019-02-28T03:10:17.227Z,10.60
2019-02-28T03:12:42.365Z,11.50
2019-02-28T03:15:09.731Z,10.50
2019-02-28T03:17:36.591Z,11.20
2019-02-28T03:20:07.416Z,12.27
2019-02-28T03:22:32.995Z,12.27
2019-02-28T03:24:59.898Z,12.37
2019-02-28T03:27:26.924Z,12.50
2019-02-28T03:29:53.907Z,11.40
2019-02-28T03:32:20.834Z,10.83
2019-02-28T03:34:55.452Z,12.70
2019-02-28T03:37:16.551Z,11.40
2019-02-28T03:39:43.371Z,12.03
2019-02-28T03:42:10.479Z,12.40
2019-02-28T03:44:37.256Z,12.07
2019-02-28T03:47:04.378Z,12.40
2019-02-28T03:49:31.193Z,12.40
2019-02-28T03:52:05.370Z,12.80
2019-02-28T03:54:28.767Z,12.67
2019-02-28T03:56:55.779Z,12.63
2019-02-28T03:59:22.731Z,13.40
2019-02-28T04:01:49.500Z,13.40
2019-02-28T04:04:16.531Z,12.77
2019-02-28T04:06:43.838Z,12.77
2019-02-28T04:09:10.671Z,12.90
2019-02-28T04:11:37.509Z,14.40
2019-02-28T04:14:04.324Z,13.13
2019-02-28T04:16:31.193Z,14.03
2019-02-28T04:18:58.025Z,14.60
2019-02-28T04:21:25.082Z,15.00
2019-02-28T04:23:52.256Z,14.60
2019-02-28T04:26:19.638Z,14.20
2019-02-28T04:28:53.206Z,15.10
2019-02-28T04:31:19.147Z,16.07
2019-02-28T04:33:43.969Z,16.00
2019-02-28T04:36:10.798Z,16.40
2019-02-28T04:38:37.580Z,15.80
2019-02-28T04:41:04.754Z,15.90
2019-02-28T04:43:31.523Z,17.03
2019-02-28T04:45:58.520Z,16.63
2019-02-28T04:48:25.545Z,17.60
2019-02-28T04:50:52.400Z,16.93
2019-02-28T04:53:20.088Z,18.70
2019-02-28T04:55:47.148Z,17.30
2019-02-28T04:58:14.300Z,19.03
2019-02-28T05:00:41.232Z,19.20
2019-02-28T05:03:08.252Z,17.20
2019-02-28T05:05:35.064Z,18.97
2019-02-28T05:08:05.748Z,18.30
2019-02-28T05:10:30.759Z,19.10
2019-02-28T05:12:57.571Z,20.20
2019-02-28T05:15:24.523Z,19.43
2019-02-28T05:17:53.105Z,19.30
2019-02-28T05:20:20.112Z,20.60
2019-02-28T05:22:46.918Z,20.50
2019-02-28T05:25:17.424Z,19.93
2019-02-28T05:27:42.400Z,20.37
2019-02-28T05:30:10.090Z,21.60
2019-02-28T05:32:36.903Z,20.40
2019-02-28T05:35:03.875Z,20.03
2019-02-28T05:37:30.681Z,21.70
2019-02-28T05:39:57.585Z,20.50
2019-02-28T05:42:24.439Z,20.67
2019-02-28T05:44:51.279Z,21.77
2019-02-28T05:47:18.124Z,21.30
2019-02-28T05:49:44.931Z,21.27
2019-02-28T05:52:11.841Z,22.00
2019-02-28T05:54:38.900Z,21.17
2019-02-28T05:57:08.253Z,23.90
2019-02-28T05:59:34.426Z,23.67
2019-02-28T06:02:01.354Z,24.07
2019-02-28T06:04:28.213Z,24.33
2019-02-28T06:06:55.615Z,24.70
2019-02-28T06:09:22.827Z,26.53
2019-02-28T06:11:49.633Z,25.33
2019-02-28T06:14:16.503Z,25.87
2019-02-28T06:16:46.885Z,24.97
2019-02-28T06:19:12.576Z,25.60
2019-02-28T06:21:39.634Z,26.77
2019-02-28T06:24:06.800Z,26.30
2019-02-28T06:26:33.809Z,25.63
2019-02-28T06:29:04.748Z,25.80
2019-02-28T06:31:29.421Z,25.00
2019-02-28T06:33:56.276Z,27.07
2019-02-28T06:36:25.691Z,27.00
2019-02-28T06:38:54.547Z,27.50
2019-02-28T06:41:20.908Z,28.93
2019-02-28T06:43:50.230Z,28.07
2019-02-28T06:46:16.896Z,28.60
2019-02-28T06:48:43.776Z,29.20
2019-02-28T06:51:10.905Z,28.57
2019-02-28T06:53:39.726Z,29.00
2019-02-28T06:56:06.593Z,30.93
2019-02-28T06:58:33.962Z,29.17
2019-02-28T07:01:00.983Z,29.27
2019-02-28T07:03:27.774Z,32.27
2019-02-28T07:05:57.556Z,30.17
2019-02-28T07:08:24.712Z,30.70
2019-02-28T07:10:51.954Z,30.53
2019-02-28T07:13:18.739Z,31.63
2019-02-28T07:15:45.540Z,32.60
2019-02-28T07:18:12.348Z,31.63
2019-02-28T07:20:39.123Z,33.13
2019-02-28T07:23:05.972Z,34.40
2019-02-28T07:25:33.164Z,33.07
2019-02-28T07:28:01.570Z,33.57
2019-02-28T07:30:29.143Z,36.27
2019-02-28T07:32:55.963Z,30.87
2019-02-28T07:35:22.875Z,36.53
2019-02-28T07:37:53.425Z,34.97
2019-02-28T07:40:18.520Z,33.23
2019-02-28T07:42:45.292Z,34.77
2019-02-28T07:45:12.667Z,34.53
2019-02-28T07:47:39.693Z,34.80
2019-02-28T07:50:07.642Z,35.57
2019-02-28T07:52:35.671Z,36.87
2019-02-28T07:55:03.179Z,34.13
2019-02-28T07:57:30.066Z,34.83
2019-02-28T07:59:57.001Z,34.80
2019-02-28T08:02:23.780Z,36.40
2019-02-28T08:04:54.279Z,34.77
2019-02-28T08:07:19.550Z,35.83
2019-02-28T08:09:46.304Z,36.03
2019-02-28T08:12:13.107Z,35.93
2019-02-28T08:14:40.142Z,37.33
2019-02-28T08:17:09.043Z,39.63
2019-02-28T08:19:35.658Z,38.20
2019-02-28T08:22:02.741Z,37.83
2019-02-28T08:24:29.580Z,38.03
2019-02-28T08:26:56.401Z,41.07
2019-02-28T08:29:23.235Z,40.40
2019-02-28T08:31:50.226Z,40.77
2019-02-28T08:34:17.038Z,41.63
2019-02-28T08:36:46.950Z,41.40
2019-02-28T08:39:16.297Z,42.40
2019-02-28T08:41:43.345Z,41.57
2019-02-28T08:44:10.361Z,41.37
2019-02-28T08:46:37.185Z,41.13
2019-02-28T08:49:07.244Z,41.00
2019-02-28T08:51:33.690Z,41.07
2019-02-28T08:54:00.464Z,41.40
2019-02-28T08:56:27.331Z,42.47
2019-02-28T08:58:54.161Z,41.30
2019-02-28T09:01:21.396Z,42.47
2019-02-28T09:03:50.147Z,42.90
2019-02-28T09:06:17.272Z,41.30
2019-02-28T09:08:44.073Z,40.67
2019-02-28T09:11:10.913Z,42.23
2019-02-28T09:13:39.959Z,43.60
2019-02-28T09:16:06.606Z,42.80
2019-02-28T09:18:33.404Z,41.80
2019-02-28T09:21:00.236Z,42.60
2019-02-28T09:23:27.258Z,41.80
2019-02-28T09:25:56.822Z,41.23
2019-02-28T09:28:23.197Z,43.87
2019-02-28T09:30:50.256Z,45.37
2019-02-28T09:33:19.272Z,43.23
2019-02-28T09:35:46.538Z,44.13
2019-02-28T09:38:13.918Z,43.27
2019-02-28T09:40:41.331Z,43.37
2019-02-28T09:43:08.381Z,42.10
2019-02-28T09:45:35.195Z,42.10
2019-02-28T09:48:02.426Z,42.90
2019-02-28T09:50:29.498Z,40.20
2019-02-28T09:52:56.603Z,44.10
2019-02-28T09:55:23.436Z,41.23
2019-02-28T09:57:54.670Z,45.60
2019-02-28T10:00:19.465Z,44.17
2019-02-28T10:02:46.448Z,42.17
2019-02-28T10:05:13.296Z,41.97
2019-02-28T10:07:40.083Z,41.60
2019-02-28T10:10:08.356Z,41.03
2019-02-28T10:12:35.201Z,44.33
2019-02-28T10:15:07.013Z,39.90
2019-02-28T10:17:30.885Z,43.97
2019-02-28T10:19:57.768Z,42.23
2019-02-28T10:22:24.673Z,41.03
2019-02-28T10:24:51.483Z,41.37
2019-02-28T10:27:18.255Z,41.10
2019-02-28T10:29:45.072Z,42.73
2019-02-28T10:32:11.871Z,39.10
2019-02-28T10:34:38.711Z,42.33
2019-02-28T10:37:05.479Z,38.00
2019-02-28T10:39:32.262Z,38.10
2019-02-28T10:42:01.534Z,40.97
2019-02-28T10:44:30.699Z,42.53
2019-02-28T10:46:56.784Z,41.60
2019-02-28T10:49:24.122Z,41.00
2019-02-28T10:51:51.812Z,40.87
2019-02-28T10:54:18.599Z,42.93
2019-02-28T10:56:45.896Z,40.10
2019-02-28T10:59:13.065Z,37.83
2019-02-28T11:01:42.009Z,40.10
2019-02-28T11:04:08.928Z,40.47
2019-02-28T11:06:36.991Z,40.87
2019-02-28T11:09:04.301Z,41.97
2019-02-28T11:11:31.143Z,42.77
2019-02-28T11:13:59.009Z,39.10
2019-02-28T11:16:25.908Z,40.67
2019-02-28T11:18:52.848Z,40.03
2019-02-28T11:21:20.491Z,41.70
2019-02-28T11:23:50.140Z,39.60
2019-02-28T11:26:16.175Z,38.87
2019-02-28T11:28:43.355Z,41.33
2019-02-28T11:31:11.198Z,40.43
2019-02-28T11:33:39.655Z,39.23
2019-02-28T11:36:07.528Z,39.40
2019-02-28T11:38:34.654Z,42.40
2019-02-28T11:41:01.682Z,40.77
2019-02-28T11:43:28.619Z,39.63
2019-02-28T11:45:56.460Z,38.30
2019-02-28T11:48:24.460Z,39.67
2019-02-28T11:50:51.464Z,40.53
2019-02-28T11:53:19.173Z,37.60
2019-02-28T11:55:46.317Z,38.40
2019-02-28T11:58:16.295Z,39.93
2019-02-28T12:00:42.215Z,36.37
2019-02-28T12:03:09.166Z,37.83
2019-02-28T12:05:36.142Z,37.20
2019-02-28T12:08:06.364Z,39.23
2019-02-28T12:10:32.043Z,40.07
2019-02-28T12:12:58.946Z,39.70
2019-02-28T12:15:26.306Z,38.43
2019-02-28T12:17:53.340Z,39.97
2019-02-28T12:20:25.876Z,40.10
2019-02-28T12:22:50.016Z,40.13
2019-02-28T12:25:17.461Z,38.40
2019-02-28T12:27:44.302Z,38.10
2019-02-28T12:30:13.041Z,38.10
2019-02-28T12:32:40.326Z,40.47
2019-02-28T12:35:08.899Z,39.80
2019-02-28T12:37:35.741Z,38.20
2019-02-28T12:40:03.130Z,37.90
2019-02-28T12:42:31.681Z,38.00
2019-02-28T12:44:58.777Z,37.37
2019-02-28T12:47:29.399Z,39.80
2019-02-28T12:49:57.278Z,40.00
2019-02-28T12:52:25.234Z,40.50
2019-02-28T12:54:52.080Z,39.30
2019-02-28T12:57:19.259Z,39.90
2019-02-28T12:59:47.808Z,38.60
2019-02-28T13:02:15.073Z,39.53
2019-02-28T13:04:42.024Z,37.33
2019-02-28T13:07:08.834Z,40.70
2019-02-28T13:09:36.225Z,38.63
2019-02-28T13:12:03.087Z,40.53
2019-02-28T13:14:30.641Z,40.63
2019-02-28T13:16:57.738Z,38.90
2019-02-28T13:19:25.360Z,41.30
2019-02-28T13:21:52.341Z,40.33
2019-02-28T13:24:19.716Z,40.50
2019-02-28T13:26:47.165Z,41.70
2019-02-28T13:29:14.829Z,40.93
2019-02-28T13:31:42.011Z,41.50
2019-02-28T13:34:08.829Z,40.93
2019-02-28T13:36:35.756Z,42.27
2019-02-28T13:39:04.031Z,40.53
2019-02-28T13:41:31.080Z,40.70
2019-02-28T13:43:59.446Z,41.37
2019-02-28T13:46:32.347Z,41.47
2019-02-28T13:48:55.747Z,42.93
2019-02-28T13:51:22.675Z,40.40
2019-02-28T13:53:49.494Z,40.70
2019-02-28T13:56:17.997Z,40.70
2019-02-28T13:58:45.089Z,41.77
2019-02-28T14:01:12.323Z,41.93
2019-02-28T14:03:42.335Z,44.53
2019-02-28T14:06:07.874Z,40.97
2019-02-28T14:08:34.675Z,43.13
2019-02-28T14:11:01.492Z,42.17
2019-02-28T14:13:30.009Z,40.03
2019-02-28T14:15:57.012Z,42.17
2019-02-28T14:18:24.168Z,40.47
2019-02-28T14:20:50.969Z,41.77
2019-02-28T14:23:20.689Z,40.83
2019-02-28T14:25:46.460Z,41.47
2019-02-28T14:28:13.284Z,39.13
2019-02-28T14:30:40.082Z,38.73
2019-02-28T14:33:07.004Z,41.57
2019-02-28T14:35:35.694Z,38.40
2019-02-28T14:38:03.285Z,37.57
2019-02-28T14:40:30.073Z,38.90
2019-02-28T14:42:56.896Z,39.67
2019-02-28T14:45:24.072Z,40.50
2019-02-28T14:47:57.278Z,40.23
2019-02-28T14:50:22.998Z,39.50
2019-02-28T14:52:50.381Z,39.77
2019-02-28T14:55:17.375Z,39.00
2019-02-28T14:57:44.454Z,36.97
2019-02-28T15:00:12.678Z,41.07
2019-02-28T15:02:39.966Z,41.50
2019-02-28T15:05:08.734Z,41.07
2019-02-28T15:07:38.703Z,40.53
2019-02-28T15:10:05.636Z,39.97
2019-02-28T15:12:32.773Z,42.40
2019-02-28T15:14:59.958Z,40.33
2019-02-28T15:17:27.337Z,40.70
2019-02-28T15:19:57.046Z,43.40
2019-02-28T15:22:24.517Z,43.13
2019-02-28T15:24:51.938Z,42.00
2019-02-28T15:27:19.136Z,43.40
2019-02-28T15:29:46.217Z,44.67
2019-02-28T15:32:14.278Z,43.43
2019-02-28T15:34:42.141Z,43.97
2019-02-28T15:37:09.251Z,43.10
2019-02-28T15:39:36.349Z,45.03
2019-02-28T15:42:05.528Z,43.50
2019-02-28T15:44:32.156Z,42.00
2019-02-28T15:46:58.968Z,41.93
2019-02-28T15:49:25.889Z,39.63
2019-02-28T15:51:53.212Z,38.30
2019-02-28T15:54:21.773Z,38.30
2019-02-28T15:56:51.800Z,36.60
2019-02-28T15:59:18.089Z,34.10
2019-02-28T16:01:45.039Z,34.50
2019-02-28T16:04:12.048Z,36.40
2019-02-28T16:06:39.145Z,37.03
2019-02-28T16:09:08.486Z,38.20
2019-02-28T16:11:37.419Z,39.33
2019-02-28T16:14:04.236Z,37.90
2019-02-28T16:16:31.454Z,42.70
2019-02-28T16:18:58.275Z,40.77
2019-02-28T16:21:25.394Z,45.10
2019-02-28T16:23:52.616Z,46.17
2019-02-28T16:26:21.813Z,45.00
2019-02-28T16:28:48.789Z,46.87
2019-02-28T16:31:15.993Z,46.10
2019-02-28T16:33:43.601Z,45.30
2019-02-28T16:36:10.407Z,46.10
2019-02-28T16:38:37.264Z,48.00
2019-02-28T16:41:04.182Z,46.90
2019-02-28T16:43:30.985Z,46.17
2019-02-28T16:45:57.928Z,48.57
2019-02-28T16:48:25.029Z,51.73
2019-02-28T16:50:53.684Z,51.67
2019-02-28T16:53:20.828Z,51.33
2019-02-28T16:55:47.641Z,50.70
2019-02-28T16:58:14.592Z,55.77
2019-02-28T17:00:42.405Z,53.83
2019-02-28T17:03:10.763Z,52.47
2019-02-28T17:05:37.714Z,54.50
2019-02-28T17:08:06.692Z,54.93
2019-02-28T17:10:34.902Z,57.47
2019-02-28T17:13:09.669Z,53.07
2019-02-28T17:15:55.412Z,53.80
2019-02-28T17:18:24.299Z,51.10
2019-02-28T17:20:51.274Z,50.90
2019-02-28T17:23:18.743Z,52.87
2019-02-28T17:25:46.125Z,53.10
2019-02-28T17:28:30.643Z,52.00
2019-02-28T17:31:16.063Z,51.57
2019-02-28T17:33:46.320Z,47.87
2019-02-28T17:36:12.839Z,51.63
2019-02-28T17:38:41.008Z,53.23
2019-02-28T17:41:08.119Z,52.40
2019-02-28T17:43:36.752Z,52.20
2019-02-28T17:46:03.696Z,50.57
2019-02-28T17:48:48.622Z,53.07
2019-02-28T17:51:33.997Z,51.97
2019-02-28T17:54:13.313Z,50.87
2019-02-28T17:56:59.079Z,51.60
2019-02-28T17:59:51.742Z,50.80
2019-02-28T18:02:27.123Z,47.70
2019-02-28T18:05:13.224Z,47.47
2019-02-28T18:08:00.556Z,47.23
2019-02-28T18:10:50.475Z,47.40
2019-02-28T18:13:43.270Z,46.70
2019-02-28T18:16:17.919Z,48.10
2019-02-28T18:19:04.736Z,46.40
2019-02-28T18:21:41.067Z,49.13
2019-02-28T18:24:34.661Z,48.37
2019-02-28T18:27:24.079Z,46.67
2019-02-28T18:30:05.416Z,45.57
2019-02-28T18:32:33.284Z,47.53
2019-02-28T18:35:01.146Z,50.40
2019-02-28T18:37:28.228Z,47.00
2019-02-28T18:39:55.119Z,51.10
2019-02-28T18:42:21.919Z,50.50
2019-02-28T18:44:48.754Z,46.73
2019-02-28T18:47:23.518Z,51.17
2019-02-28T18:49:50.520Z,47.07
2019-02-28T18:52:18.049Z,46.43
2019-02-28T18:54:45.341Z,48.90
2019-02-28T18:57:13.185Z,49.20
2019-02-28T18:59:40.351Z,46.30
2019-02-28T19:02:07.298Z,49.23
2019-02-28T19:04:34.242Z,50.23
2019-02-28T19:07:01.184Z,51.77
2019-02-28T19:09:28.224Z,51.37
2019-02-28T19:11:55.508Z,51.13
2019-02-28T19:14:22.428Z,50.50
2019-02-28T19:16:49.305Z,54.17
2019-02-28T19:19:16.315Z,52.17
2019-02-28T19:21:43.113Z,51.20
2019-02-28T19:24:09.961Z,51.70
2019-02-28T19:26:36.859Z,52.20
2019-02-28T19:29:04.035Z,55.80
2019-02-28T19:31:31.100Z,54.87
2019-02-28T19:33:58.016Z,53.33
2019-02-28T19:36:24.935Z,54.80
2019-02-28T19:38:51.909Z,53.40
2019-02-28T19:41:18.987Z,51.53
2019-02-28T19:43:45.801Z,52.13
2019-02-28T19:46:12.697Z,52.90
2019-02-28T19:48:39.599Z,52.30
2019-02-28T19:51:06.845Z,54.70
2019-02-28T19:53:33.752Z,48.53
2019-02-28T19:56:03.389Z,50.90
2019-02-28T19:58:30.389Z,52.97
2019-02-28T20:00:57.293Z,54.73
2019-02-28T20:03:24.360Z,49.47
2019-02-28T20:05:51.680Z,49.10
2019-02-28T20:08:18.656Z,49.47
2019-02-28T20:10:47.091Z,53.30
2019-02-28T20:13:14.161Z,52.23
2019-02-28T20:15:41.057Z,50.73
2019-02-28T20:18:08.431Z,50.87
2019-02-28T20:20:35.222Z,54.03
2019-02-28T20:23:02.224Z,57.60
2019-02-28T20:25:29.052Z,51.60
2019-02-28T20:27:56.022Z,49.50
2019-02-28T20:30:24.214Z,44.87
2019-02-28T20:32:51.657Z,49.20
2019-02-28T20:35:26.181Z,45.50
2019-02-28T20:37:47.438Z,46.80
2019-02-28T20:40:14.443Z,43.40
2019-02-28T20:42:41.388Z,45.30
2019-02-28T20:45:08.529Z,44.40
2019-02-28T20:47:35.374Z,44.87
2019-02-28T20:50:03.400Z,44.67
2019-02-28T20:52:30.330Z,43.20
2019-02-28T20:54:57.137Z,42.07
2019-02-28T20:57:23.931Z,43.40
2019-02-28T20:59:50.804Z,43.00
2019-02-28T21:02:18.833Z,43.77
2019-02-28T21:04:45.910Z,41.90
2019-02-28T21:07:12.960Z,40.00
2019-02-28T21:09:44.998Z,42.07
2019-02-28T21:12:08.537Z,40.07
2019-02-28T21:14:35.370Z,40.20
2019-02-28T21:17:02.295Z,42.53
2019-02-28T21:19:29.155Z,41.30
2019-02-28T21:21:56.075Z,38.47
2019-02-28T21:24:23.225Z,38.53
2019-02-28T21:26:50.065Z,38.03
2019-02-28T21:29:16.913Z,38.60
2019-02-28T21:31:43.789Z,39.37
2019-02-28T21:34:10.976Z,37.50
2019-02-28T21:36:37.947Z,39.20
2019-02-28T21:39:05.530Z,40.20
2019-02-28T21:41:32.426Z,38.70
2019-02-28T21:43:59.298Z,37.10
2019-02-28T21:46:26.193Z,36.07
2019-02-28T21:48:53.105Z,34.57
2019-02-28T21:51:19.919Z,35.40
2019-02-28T21:53:46.784Z,33.40
2019-02-28T21:56:13.593Z,32.17
2019-02-28T21:58:40.493Z,33.90
2019-02-28T22:01:07.339Z,32.60
2019-02-28T22:03:34.140Z,34.83
2019-02-28T22:06:01.019Z,33.47
2019-02-28T22:08:27.882Z,35.87
2019-02-28T22:10:54.951Z,33.63
2019-02-28T22:13:21.843Z,32.20
2019-02-28T22:15:48.650Z,32.80
2019-02-28T22:18:15.439Z,32.37
2019-02-28T22:20:42.573Z,35.10
2019-02-28T22:23:09.430Z,33.07
2019-02-28T22:25:36.528Z,32.70
2019-02-28T22:28:03.696Z,32.47
2019-02-28T22:30:50.665Z,33.50
2019-02-28T22:33:26.618Z,32.73
2019-02-28T22:35:55.429Z,30.47
2019-02-28T22:38:22.301Z,32.47
2019-02-28T22:40:49.123Z,29.90
2019-02-28T22:43:16.005Z,30.20
2019-02-28T22:45:42.837Z,30.00
2019-02-28T22:48:09.959Z,30.13
2019-02-28T22:50:37.259Z,29.27
2019-02-28T22:53:04.165Z,31.60
2019-02-28T22:55:31.034Z,29.30
2019-02-28T22:57:57.889Z,30.97
2019-02-28T23:00:31.950Z,30.20
2019-02-28T23:02:59.003Z,30.60
2019-02-28T23:05:26.145Z,31.03
2019-02-28T23:07:53.355Z,32.20
2019-02-28T23:10:20.217Z,32.07
2019-02-28T23:12:47.081Z,31.83
2019-02-28T23:15:13.977Z,32.47
2019-02-28T23:17:40.820Z,31.93
2019-02-28T23:20:07.972Z,33.63
2019-02-28T23:22:35.220Z,33.97
2019-02-28T23:25:02.035Z,32.23
2019-02-28T23:27:29.171Z,31.00
2019-02-28T23:30:14.555Z,29.83
2019-02-28T23:32:43.864Z,30.43
2019-02-28T23:35:13.235Z,31.83
2019-02-28T23:37:40.121Z,31.70
2019-02-28T23:40:07.291Z,31.90
2019-02-28T23:42:34.268Z,31.77
2019-02-28T23:45:01.143Z,33.33
2019-02-28T23:47:28.205Z,34.37
2019-02-28T23:49:55.253Z,33.13
2019-02-28T23:52:22.088Z,32.73
2019-02-28T23:54:49.268Z,29.33
2019-02-28T23:57:16.178Z,31.80
2019-02-28T23:59:43.156Z,30.70
